Flight Track Log - Related Links

Times and Time Zones

All times are in EDT time to prevent confusion due to time zone crossing. See the N524NK flight status page for this flight to view local times or setup timezone preferences in your user account.

Time Position Orientation Groundspeed Altitude Reporting Facility
EDT Latitude Longitude Course Direction KTS MPH feet Rate Location/Type
Sat 08:31:22 PM 26.0780 -80.1190 85° East 148 170 1,400  Level FlightAware ADS-B
Sat 08:31:52 PM 26.0790 -80.0940 87° East 169 194 2,200 1,636 Climbing FlightAware ADS-B
Sat 08:32:17 PM 26.0810 -80.0720 84° East 189 217 2,900 1,800 Climbing FlightAware ADS-B
Sat 08:32:32 PM 26.0910 -80.0590 49° Northeast 203 234 3,400 1,800 Climbing FlightAware ADS-B
Sat 08:32:47 PM 26.1030 -80.0550 17° North 219 252 3,800 1,733 Climbing FlightAware ADS-B
Sat 08:33:17 PM 26.1370 -80.0590 354° North 262 302 4,700 2,509 Climbing FlightAware ADS-B
Sat 08:33:42 PM 26.1690 -80.0690 344° North 275 316 6,100 3,300 Climbing FlightAware ADS-B
Sat 08:33:57 PM 26.1840 -80.0810 324° Northwest 284 327 6,900 3,200 Climbing FlightAware ADS-B
Sat 08:34:12 PM 26.1960 -80.1000 305° West 288 331 7,700 2,400 Climbing FlightAware ADS-B
Sat 08:34:42 PM 26.2160 -80.1380 300° West 295 339 8,700 1,309 Climbing FlightAware ADS-B
Sat 08:35:07 PM 26.2310 -80.1710 297° West 302 348 8,900 133 Climbing FlightAware ADS-B
Sat 08:35:27 PM 26.2440 -80.1970 299° West 302 348 8,800 -86 Descending FlightAware ADS-B
Sat 08:36:17 PM 26.2560 -80.2760 280° West 303 349 8,800  Level FlightAware ADS-B
Sat 08:36:32 PM 26.2580 -80.3000 275° West 302 348 8,800 873 Level FlightAware ADS-B
Sat 08:37:12 PM 26.2650 -80.3620 277° West 303 349 9,600 1,575 Climbing FlightAware ADS-B
Sat 08:37:52 PM 26.2750 -80.4260 280° West 334 384 10,900 1,920 Climbing FlightAware ADS-B
Sat 08:38:52 PM 26.2910 -80.5350 279° West 370 426 12,800 2,271 Climbing FlightAware ADS-B
Sat 08:40:12 PM 26.3650 -80.6610 303° West 374 430 16,200 2,400 Climbing FlightAware ADS-B
Sat 08:41:27 PM 26.4630 -80.7560 319° Northwest 391 450 19,000 2,100 Climbing FlightAware ADS-B
Sat 08:42:32 PM 26.5720 -80.8130 335° Northwest 405 466 21,100 1,757 Climbing FlightAware ADS-B
Sat 08:43:47 PM 26.7030 -80.8790 336° Northwest 419 482 23,100 1,531 Climbing FlightAware ADS-B
Sat 08:44:57 PM 26.8340 -80.9280 342° North 436 502 24,800 1,461 Climbing FlightAware ADS-B
Sat 08:45:42 PM 26.9240 -80.9600 342° North 441 507 25,900 1,414 Climbing FlightAware ADS-B
Sat 08:47:17 PM 27.1090 -81.0320 341° North 442 509 28,100 1,269 Climbing FlightAware ADS-B
Sat 08:48:37 PM 27.2660 -81.0920 341° North 461 531 29,600 1,355 Climbing FlightAware ADS-B
Sat 08:49:52 PM 27.4170 -81.1420 344° North 452 520 31,600 1,357 Climbing FlightAware ADS-B
Sat 08:50:32 PM 27.5040 -81.1520 354° North 457 526 32,200 900 Climbing FlightAware ADS-B
Sat 08:51:12 PM 27.5900 -81.1630 354° North 460 529 32,800 1,059 Climbing FlightAware ADS-B
Sat 08:51:57 PM 27.6820 -81.1740 354° North 458 527 33,700 1,271 Climbing FlightAware ADS-B
Sat 08:52:37 PM 27.7560 -81.1830 354° North 450 518 34,600 1,271 Climbing FlightAware ADS-B
Sat 08:53:22 PM 27.8530 -81.1950 354° North 439 505 35,500 1,059 Climbing FlightAware ADS-B
Sat 08:54:02 PM 27.9340 -81.2050 354° North 438 504 36,100 900 Climbing FlightAware ADS-B
Sat 08:54:42 PM 28.0170 -81.2160 353° North 437 503 36,700 635 Climbing FlightAware ADS-B
Sat 08:55:27 PM 28.1090 -81.2270 354° North 437 503 37,000 212 Climbing FlightAware ADS-B
Sat 08:56:07 PM 28.1880 -81.2370 354° North 437 503 37,000  Level FlightAware ADS-B
Sat 08:56:52 PM 28.2840 -81.2480 354° North 435 501 37,000  Level FlightAware ADS-B
Sat 08:57:32 PM 28.3660 -81.2590 353° North 435 501 37,000  Level FlightAware ADS-B
Sat 08:58:12 PM 28.4460 -81.2770 349° North 438 504 37,000  Level FlightAware ADS-B
Sat 08:58:57 PM 28.5330 -81.3070 343° North 438 504 37,000  Level FlightAware ADS-B
Sat 08:59:37 PM 28.6100 -81.3330 343° North 439 505 37,000  Level FlightAware ADS-B
Sat 09:00:22 PM 28.6980 -81.3630 343° North 438 504 37,000  Level FlightAware ADS-B
Sat 09:01:02 PM 28.7780 -81.3910 343° North 439 505 37,000  Level FlightAware ADS-B
Sat 09:01:42 PM 28.8540 -81.4170 343° North 438 504 37,000  Level FlightAware ADS-B
Sat 09:02:27 PM 28.9400 -81.4470 343° North 438 504 37,000  Level FlightAware ADS-B
Sat 09:03:07 PM 29.0200 -81.4740 344° North 435 501 37,000  Level FlightAware ADS-B
Sat 09:03:47 PM 29.0970 -81.5010 343° North 435 501 37,000  Level FlightAware ADS-B
Sat 09:04:32 PM 29.1800 -81.5300 343° North 435 501 37,000  Level FlightAware ADS-B
Sat 09:05:27 PM 29.2870 -81.5660 344° North 437 503 37,000  Level FlightAware ADS-B
Sat 09:06:07 PM 29.3770 -81.5880 348° North 444 511 37,000  Level FlightAware ADS-B
Sat 09:06:47 PM 29.4470 -81.5970 354° North 437 503 37,000  Level FlightAware ADS-B
Sat 09:07:32 PM 29.5300 -81.6080 353° North 437 503 37,000  Level FlightAware ADS-B
Sat 09:08:12 PM 29.6320 -81.6200 354° North 447 514 37,000  Level FlightAware ADS-B
Sat 09:08:57 PM 29.7260 -81.6320 354° North 446 513 37,000  Level FlightAware ADS-B
Sat 09:09:52 PM 29.8340 -81.6470 353° North 446 513 37,000  Level FlightAware ADS-B
Sat 09:10:52 PM 29.9650 -81.6630 354° North 444 511 37,000  Level FlightAware ADS-B
Sat 09:11:27 PM 30.0310 -81.6720 353° North 445 512 37,000  Level FlightAware ADS-B
Sat 09:12:07 PM 30.1000 -81.6820 353° North 445 512 37,000  Level FlightAware ADS-B
Sat 09:12:57 PM 30.1870 -81.6940 353° North 445 512 37,000  Level FlightAware ADS-B
Sat 09:13:37 PM 30.2560 -81.7040 353° North 445 512 37,000  Level FlightAware ADS-B
Sat 09:14:17 PM 30.3810 -81.7160 355° North 442 509 37,000  Level FlightAware ADS-B
Sat 09:15:02 PM 30.4650 -81.7280 353° North 442 509 37,000  Level FlightAware ADS-B
Sat 09:15:37 PM 30.5390 -81.7370 354° North 442 509 37,000  Level FlightAware ADS-B
Sat 09:16:22 PM 30.6220 -81.7480 353° North 442 509 37,000  Level FlightAware ADS-B
Sat 09:17:02 PM 30.6910 -81.7580 353° North 442 509 37,000  Level FlightAware ADS-B
Sat 09:17:42 PM 30.7600 -81.7680 353° North 442 509 37,000  Level FlightAware ADS-B
Sat 09:18:32 PM 30.8460 -81.7810 353° North 442 509 37,000  Level FlightAware ADS-B
Sat 09:19:12 PM 30.9150 -81.7900 354° North 442 509 37,000  Level FlightAware ADS-B
Sat 09:19:52 PM 30.9840 -81.8000 353° North 442 509 37,000  Level FlightAware ADS-B
Sat 09:20:32 PM 31.0530 -81.8100 353° North 442 509 37,000  Level FlightAware ADS-B
Sat 09:21:12 PM 31.1220 -81.8200 353° North 442 509 37,000  Level FlightAware ADS-B
Sat 09:22:02 PM 31.2080 -81.8320 353° North 442 509 37,000  Level FlightAware ADS-B
Sat 09:22:42 PM 31.2770 -81.8420 353° North 442 509 37,000  Level FlightAware ADS-B
Sat 09:23:22 PM 31.3460 -81.8520 353° North 442 509 37,000  Level FlightAware ADS-B
Sat 09:24:02 PM 31.4150 -81.8620 353° North 442 509 37,000  Level FlightAware ADS-B
Sat 09:24:42 PM 31.4840 -81.8720 353° North 442 509 37,000  Level FlightAware ADS-B
Sat 09:25:32 PM 31.5710 -81.8850 353° North 442 509 37,000  Level FlightAware ADS-B
Sat 09:29:07 PM 32.1810 -81.9530 355° North 437 503 37,000  Level FlightAware ADS-B
Sat 09:29:52 PM 32.2670 -81.9650 353° North 437 503 37,000  Level FlightAware ADS-B
Sat 09:30:37 PM 32.3620 -81.9780 353° North 437 503 37,000  Level FlightAware ADS-B
Sat 09:31:22 PM 32.4520 -81.9900 354° North 436 502 37,000  Level FlightAware ADS-B
Sat 09:32:02 PM 32.5320 -82.0010 353° North 436 502 37,000  Level FlightAware ADS-B
Sat 09:32:42 PM 32.6130 -82.0110 354° North 436 502 37,000  Level FlightAware ADS-B
Sat 09:33:27 PM 32.7010 -82.0230 353° North 435 501 37,000  Level FlightAware ADS-B
Sat 09:34:07 PM 32.7810 -82.0340 353° North 435 501 37,000  Level FlightAware ADS-B
Sat 09:34:47 PM 32.8600 -82.0450 353° North 435 501 37,000  Level FlightAware ADS-B
Sat 09:35:32 PM 32.9440 -82.0570 353° North 436 502 37,000  Level FlightAware ADS-B
Sat 09:36:12 PM 33.0250 -82.0680 354° North 438 504 37,000  Level FlightAware ADS-B
Sat 09:36:57 PM 33.1220 -82.0810 354° North 440 506 37,000  Level FlightAware ADS-B
Sat 09:37:37 PM 33.2030 -82.0920 354° North 441 507 37,000  Level FlightAware ADS-B
Sat 09:38:12 PM 33.2720 -82.1020 353° North 441 507 37,000  Level FlightAware ADS-B
Sat 09:39:02 PM 33.3760 -82.1160 354° North 440 506 37,000  Level FlightAware ADS-B
Sat 09:39:42 PM 33.4490 -82.1260 353° North 439 505 37,000  Level FlightAware ADS-B
Sat 09:40:22 PM 33.5370 -82.1380 354° North 439 505 37,000  Level FlightAware ADS-B
Sat 09:41:07 PM 33.6270 -82.1510 353° North 440 506 37,000  Level FlightAware ADS-B
Sat 09:41:42 PM 33.7000 -82.1560 357° North 447 514 37,000  Level FlightAware ADS-B
Sat 09:42:02 PM 33.7410 -82.1540 North 450 518 37,000  Level FlightAware ADS-B
Sat 09:42:47 PM 33.8340 -82.1380 North 457 526 37,000  Level FlightAware ADS-B
Sat 09:43:27 PM 33.9170 -82.1160 12° North 459 528 37,000  Level FlightAware ADS-B
Sat 09:44:12 PM 34.0120 -82.0920 12° North 460 529 37,000  Level FlightAware ADS-B
Sat 09:44:52 PM 34.0870 -82.0740 11° North 462 532 37,000  Level FlightAware ADS-B
Sat 09:45:32 PM 34.1790 -82.0520 11° North 461 531 37,000  Level FlightAware ADS-B
Sat 09:46:17 PM 34.2730 -82.0280 12° North 461 531 37,000  Level FlightAware ADS-B
Sat 09:46:57 PM 34.3560 -82.0080 11° North 461 531 37,000  Level FlightAware ADS-B
Sat 09:47:37 PM 34.4390 -81.9870 12° North 461 531 37,000  Level FlightAware ADS-B
Sat 09:48:03 PM 34.5030 -81.9715 11° North 460 529 37,000  Level FlightAware ADS-B
Sat 09:48:33 PM 34.5658 -81.9559 12° North 460 529 37,000  Level FlightAware ADS-B
Sat 09:49:07 PM 34.6260 -81.9410 12° North 462 532 37,000  Level FlightAware ADS-B
Sat 09:49:25 PM 34.6739 -81.9289 12° North 461 531 37,000  Level FlightAware ADS-B
Sat 09:50:15 PM 34.7802 -81.9023 12° North 463 533 37,000  Level FlightAware ADS-B
Sat 09:50:46 PM 34.8441 -81.8864 12° North 464 534 37,000  Level FlightAware ADS-B
Sat 09:51:16 PM 34.9085 -81.8702 12° North 464 534 37,000  Level FlightAware ADS-B
Sat 09:51:48 PM 34.9753 -81.8534 12° North 465 535 37,000  Level FlightAware ADS-B
Sat 09:52:19 PM 35.0400 -81.8372 12° North 464 534 37,000  Level FlightAware ADS-B
Sat 09:52:51 PM 35.1068 -81.8205 12° North 464 534 37,000  Level FlightAware ADS-B
Sat 09:53:22 PM 35.1720 -81.8040 12° North 462 532 37,000  Level FlightAware ADS-B
Sat 09:53:54 PM 35.2386 -81.7871 12° North 463 533 37,000  Level FlightAware ADS-B
Sat 09:54:25 PM 35.3038 -81.7704 12° North 464 534 37,000  Level FlightAware ADS-B
Sat 09:54:55 PM 35.3688 -81.7541 12° North 465 535 37,000  Level FlightAware ADS-B
Sat 09:55:25 PM 35.4320 -81.7382 12° North 466 536 37,000  Level FlightAware ADS-B
Sat 09:55:56 PM 35.4968 -81.7216 12° North 468 539 37,000  Level FlightAware ADS-B
Sat 09:56:29 PM 35.5659 -81.7041 12° North 468 539 37,000  Level FlightAware ADS-B
Sat 09:57:01 PM 35.6344 -81.6865 12° North 468 539 37,000  Level FlightAware ADS-B
Sat 09:57:35 PM 35.7058 -81.6685 12° North 468 539 37,000  Level FlightAware ADS-B
Sat 09:58:06 PM 35.7722 -81.6516 12° North 468 539 37,000  Level FlightAware ADS-B
Sat 09:58:36 PM 35.8367 -81.6350 12° North 469 540 37,000  Level FlightAware ADS-B
Sat 09:59:07 PM 35.9006 -81.6186 12° North 469 540 37,000  Level FlightAware ADS-B
Sat 09:59:37 PM 35.9658 -81.6018 12° North 469 540 37,000  Level FlightAware ADS-B
Sat 10:00:07 PM 36.0298 -81.5852 12° North 469 540 37,000  Level FlightAware ADS-B
Sat 10:00:46 PM 36.1113 -81.5643 12° North 467 537 37,000  Level FlightAware ADS-B
Sat 10:01:42 PM 36.1970 -81.5450 10° North 469 540 37,000  Level FlightAware ADS-B
Sat 10:02:22 PM 36.2690 -81.5270 11° North 469 540 37,000  Level FlightAware ADS-B
Sat 10:03:02 PM 36.3420 -81.5100 11° North 469 540 37,000  Level FlightAware ADS-B
Sat 10:03:14 PM 36.4249 -81.4827 15° North 465 535 37,000  Level FlightAware ADS-B
Sat 10:03:45 PM 36.4891 -81.4660 12° North 464 534 37,000  Level FlightAware ADS-B
Sat 10:04:16 PM 36.5556 -81.4485 12° North 463 533 37,000  Level FlightAware ADS-B
Sat 10:04:49 PM 36.6244 -81.4304 12° North 463 533 37,000  Level FlightAware ADS-B
Sat 10:05:04 PM 36.6411 -81.4264 12° North 462 532 37,000  Level Indianapolis Center
Sat 10:10:36 PM 37.3432 -81.3264 12° North 440 506 37,000  Level FlightAware ADS-B
Sat 10:11:07 PM 37.4051 -81.3384 351° North 440 506 37,000  Level FlightAware ADS-B
Sat 10:11:37 PM 37.4662 -81.3505 351° North 440 506 37,000  Level FlightAware ADS-B
Sat 10:12:13 PM 37.5393 -81.3651 351° North 440 506 37,000  Level FlightAware ADS-B
Sat 10:13:07 PM 37.6440 -81.3860 351° North 440 506 37,000  Level FlightAware ADS-B
Sat 10:13:14 PM 37.6621 -81.3895 351° North 440 506 37,000  Level FlightAware ADS-B
Sat 10:13:47 PM 37.7240 -81.4020 351° North 439 505 37,000  Level FlightAware ADS-B
Sat 10:14:06 PM 37.7658 -81.4103 351° North 439 505 37,000  Level FlightAware ADS-B
Sat 10:15:12 PM 37.8940 -81.4360 351° North 439 505 37,000  Level FlightAware ADS-B
Sat 10:15:57 PM 37.9850 -81.4540 351° North 439 505 37,000  Level FlightAware ADS-B
Sat 10:16:37 PM 38.0660 -81.4700 351° North 438 504 37,000  Level FlightAware ADS-B
Sat 10:17:22 PM 38.1530 -81.4880 351° North 437 503 37,000  Level FlightAware ADS-B
Sat 10:18:02 PM 38.2340 -81.5040 351° North 436 502 37,000  Level FlightAware ADS-B
Sat 10:18:42 PM 38.3130 -81.5200 351° North 436 502 37,000  Level FlightAware ADS-B
Sat 10:19:27 PM 38.4060 -81.5380 351° North 436 502 37,000  Level FlightAware ADS-B
Sat 10:20:07 PM 38.4830 -81.5540 351° North 436 502 37,000  Level FlightAware ADS-B
Sat 10:20:52 PM 38.5720 -81.5720 351° North 437 503 37,000  Level FlightAware ADS-B
Sat 10:21:32 PM 38.6520 -81.5880 351° North 439 505 37,000  Level FlightAware ADS-B
Sat 10:22:12 PM 38.7340 -81.6050 351° North 440 506 37,000  Level FlightAware ADS-B
Sat 10:22:57 PM 38.8250 -81.6240 351° North 442 509 37,000  Level FlightAware ADS-B
Sat 10:23:37 PM 38.9050 -81.6400 351° North 443 510 37,000  Level FlightAware ADS-B
Sat 10:24:22 PM 38.9970 -81.6590 351° North 444 511 37,000  Level FlightAware ADS-B
Sat 10:25:02 PM 39.0760 -81.6750 351° North 444 511 37,000  Level FlightAware ADS-B
Sat 10:25:42 PM 39.1570 -81.6920 351° North 444 511 37,000  Level FlightAware ADS-B
Sat 10:26:27 PM 39.2500 -81.7110 351° North 445 512 37,000  Level FlightAware ADS-B
Sat 10:27:07 PM 39.3280 -81.7270 351° North 445 512 37,000  Level FlightAware ADS-B
Sat 10:27:47 PM 39.4130 -81.7450 351° North 446 513 37,000  Level FlightAware ADS-B
Sat 10:28:32 PM 39.5070 -81.7650 351° North 447 514 37,000  Level FlightAware ADS-B
Sat 10:29:12 PM 39.5890 -81.7820 351° North 447 514 37,000  Level FlightAware ADS-B
Sat 10:29:57 PM 39.6790 -81.8000 351° North 446 513 37,000  Level FlightAware ADS-B
Sat 10:30:37 PM 39.7600 -81.8170 351° North 446 513 37,000  Level FlightAware ADS-B
Sat 10:31:22 PM 39.8540 -81.8370 351° North 445 512 37,000  Level FlightAware ADS-B
Sat 10:32:02 PM 39.9350 -81.8540 351° North 444 511 37,000  Level FlightAware ADS-B
Sat 10:32:42 PM 40.0170 -81.8720 350° North 443 510 37,000 -212 Level FlightAware ADS-B
Sat 10:33:27 PM 40.1050 -81.8900 351° North 445 512 36,700 -1,482 Descending FlightAware ADS-B
Sat 10:34:07 PM 40.1880 -81.9080 351° North 448 516 34,900 -2,550 Descending FlightAware ADS-B
Sat 10:34:47 PM 40.2690 -81.9260 350° North 447 514 33,300 -2,259 Descending FlightAware ADS-B
Sat 10:35:32 PM 40.3590 -81.9450 351° North 437 503 31,700 -2,118 Descending FlightAware ADS-B
Sat 10:36:12 PM 40.4390 -81.9620 351° North 429 494 30,300 -1,200 Descending FlightAware ADS-B
Sat 10:36:57 PM 40.5300 -81.9810 351° North 429 494 30,000 -212 Descending FlightAware ADS-B
Sat 10:37:37 PM 40.6060 -81.9980 350° North 425 489 30,000  Level FlightAware ADS-B
Sat 10:38:22 PM 40.6930 -82.0170 351° North 425 489 30,000  Level FlightAware ADS-B
Sat 10:39:02 PM 40.7710 -82.0330 351° North 427 491 30,000  Level FlightAware ADS-B
Sat 10:39:42 PM 40.8490 -82.0510 350° North 427 491 30,000  Level FlightAware ADS-B
Sat 10:40:27 PM 40.9280 -82.0990 335° Northwest 413 475 30,000 -706 Level FlightAware ADS-B
Sat 10:41:07 PM 40.9930 -82.1550 327° Northwest 415 478 29,000 -1,835 Descending FlightAware ADS-B
Sat 10:41:52 PM 41.0640 -82.2140 328° Northwest 405 466 27,400 -2,118 Descending FlightAware ADS-B
Sat 10:42:32 PM 41.1250 -82.2660 327° Northwest 399 459 26,000 -2,175 Descending FlightAware ADS-B
Sat 10:43:12 PM 41.1880 -82.3190 328° Northwest 392 451 24,500 -2,118 Descending FlightAware ADS-B
Sat 10:43:57 PM 41.2550 -82.3760 327° Northwest 387 445 23,000 -2,118 Descending FlightAware ADS-B
Sat 10:44:37 PM 41.3160 -82.4280 327° Northwest 381 438 21,500 -2,118 Descending FlightAware ADS-B
Sat 10:45:22 PM 41.3820 -82.4840 328° Northwest 375 432 20,000 -1,976 Descending FlightAware ADS-B
Sat 10:46:02 PM 41.4400 -82.5340 327° Northwest 370 426 18,700 -2,175 Descending FlightAware ADS-B
Sat 10:46:42 PM 41.4990 -82.5850 327° Northwest 369 425 17,100 -1,129 Descending FlightAware ADS-B
Sat 10:47:27 PM 41.5550 -82.6330 327° Northwest 369 425 17,100  Level FlightAware ADS-B
Sat 10:48:07 PM 41.6040 -82.6750 327° Northwest 369 425 17,100  Level FlightAware ADS-B
Sat 10:48:47 PM 41.6530 -82.7180 327° Northwest 369 425 17,100 -3,741 Level FlightAware ADS-B
Sat 10:49:32 PM 41.7320 -82.7870 327° Northwest 344 396 11,800 -3,741 Descending FlightAware ADS-B
Sat 10:50:12 PM 41.7770 -82.8420 318° Northwest 351 404 11,800  Level FlightAware ADS-B
Sat 10:50:57 PM 41.8260 -82.9000 319° Northwest 351 404 11,800  Level FlightAware ADS-B
Sat 10:51:37 PM 41.8670 -82.9490 318° Northwest 351 404 11,800 -1,250 Level FlightAware ADS-B
Sat 10:52:09 PM 41.9156 -83.0081 318° Northwest 348 400 10,300 -1,826 Descending Cleveland Center
Sat 10:53:09 PM 41.9850 -83.0750 324° Northwest 327 376 9,000 -1,615 Descending Cleveland Center
Sat 10:53:27 PM 42.0078 -83.0869 339° North 300 345 8,200 -2,400 Descending Cleveland Center
Sat 10:54:09 PM 42.0656 -83.1061 346° North 299 344 6,600 -2,066 Descending Cleveland Center
Sat 10:54:28 PM 42.0925 -83.1156 345° North 299 344 6,100 -2,100 Descending Cleveland Center
Sat 10:55:09 PM 42.1419 -83.1372 342° North 294 338 4,500 -2,459 Descending Cleveland Center
Sat 10:55:29 PM 42.1711 -83.1467 347° North 285 328 3,600 -1,500 Descending Cleveland Center
Sat 10:56:09 PM 42.2144 -83.1653 342° North 278 320 3,000 -800 Descending Cleveland Center
Sat 10:56:29 PM 42.2372 -83.1747 343° North 240 276 2,800 -519 Descending Cleveland Center
Sat 10:57:30 PM 42.2947 -83.2050 339° North 212 244 2,300 -347 Descending Cleveland Center
Sat 10:58:30 PM 42.3183 -83.2678 297° West 161 185 2,100 -157 Descending Cleveland Center
Sat 10:59:25 PM 42.2864 -83.2944 212° Southwest 150 173 2,000 -466 Descending Cleveland Center
Sat 11:00:26 PM 42.2525 -83.3211 210° Southwest 133 153 1,200 -787 Descending Cleveland Center
Sat 11:02:00 PM 42.2124 -83.3534 323° Northwest  Level Estimated
Sat 11:09:00 PM 42.2124 -83.3534 312° West  Level Estimated

Login

Don't have an account? Register now (free) for customized features, flight alerts, and more!